Thailine 9 — 9WGP9 — position and weather

sailwx.info

Track history (hours):
 
Tides and Currents Weather Stations Pressure Air Temp Water Temp Dewpoint Dewpoint Depression Visibility Wind Speed Wind Dir Waves Ship Positions

Thailine 9

Last reported at 2016-Apr-30 10:33 UTC. Time now 2016-Apr-30 11:13 UTC.
Position N 34°13' E 134°59'.

Length 113 m; draft 6 m.

Type: Ship. MMSI: 533791000.

Date/timePositionNaut miles runAvg speedWind from/ knotsBaromVisibWave heightAir tempDewpointWater temp
2016-Apr-30 10:33N 34°13' E 134°59'1110.8
2016-Apr-30 09:33N 34°23' E 135°03'1111.0
2016-Apr-30 08:33N 34°29' E 135°15'8 7.5
2016-Apr-30 07:33N 34°31' E 135°23'0 0.2
2016-Apr-30 06:33N 34°31' E 135°23'0 0.0
2016-Apr-30 05:33N 34°31' E 135°23'0 0.0
2016-Apr-30 04:33N 34°31' E 135°23'0 0.0
2016-Apr-30 00:33N 34°31' E 135°23'0 0.0
2016-Apr-29 23:28N 34°31' E 135°23'0 0.0
2016-Apr-29 22:14N 34°31' E 135°23'2 2.8
2016-Apr-29 21:33N 34°32' E 135°22'1 0.5
2016-Apr-29 20:05N 34°32' E 135°21'0 0.0
2016-Apr-29 19:29N 34°32' E 135°21'0 0.0
2016-Apr-29 18:11N 34°32' E 135°21'0 0.0
2016-Apr-29 17:29N 34°32' E 135°21'0 0.0
2016-Apr-29 16:17N 34°32' E 135°21'0 0.0
2016-Apr-29 15:17N 34°32' E 135°21'0 0.0
2016-Apr-29 09:05N 34°32' E 135°21'0 0.0
2016-Apr-29 08:23N 34°32' E 135°21'0 0.0
2016-Apr-29 04:23N 34°32' E 135°21'0 0.0
2016-Apr-29 01:29N 34°32' E 135°21'0 0.0
2016-Apr-29 00:27N 34°32' E 135°21'7 7.8
2016-Apr-28 23:33N 34°33' E 135°13'1212.1
2016-Apr-28 22:33N 34°37' E 134°59'  
Track history (hours):
 
Tides and Currents Weather Stations Pressure Air Temp Water Temp Dewpoint Dewpoint Depression Visibility Wind Speed Wind Dir Waves Ship Positions

Thailine 9

Last reported at 2016-Apr-30 10:33 UTC. Time now 2016-Apr-30 11:13 UTC.
Position N 34°13' E 134°59'.

Length 113 m; draft 6 m.

Type: Ship. MMSI: 533791000.

Date/timePositionNaut miles runAvg speedWind from/ knotsBaromVisibWave heightAir tempDewpointWater temp
2016-Apr-30 10:33N 34°13' E 134°59'1110.8
2016-Apr-30 09:33N 34°23' E 135°03'1111.0
2016-Apr-30 08:33N 34°29' E 135°15'8 7.5
2016-Apr-30 07:33N 34°31' E 135°23'0 0.2
2016-Apr-30 06:33N 34°31' E 135°23'0 0.0
2016-Apr-30 05:33N 34°31' E 135°23'0 0.0
2016-Apr-30 04:33N 34°31' E 135°23'0 0.0
2016-Apr-30 00:33N 34°31' E 135°23'0 0.0
2016-Apr-29 23:28N 34°31' E 135°23'0 0.0
2016-Apr-29 22:14N 34°31' E 135°23'2 2.8
2016-Apr-29 21:33N 34°32' E 135°22'1 0.5
2016-Apr-29 20:05N 34°32' E 135°21'0 0.0
2016-Apr-29 19:29N 34°32' E 135°21'0 0.0
2016-Apr-29 18:11N 34°32' E 135°21'0 0.0
2016-Apr-29 17:29N 34°32' E 135°21'0 0.0
2016-Apr-29 16:17N 34°32' E 135°21'0 0.0
2016-Apr-29 15:17N 34°32' E 135°21'0 0.0
2016-Apr-29 09:05N 34°32' E 135°21'0 0.0
2016-Apr-29 08:23N 34°32' E 135°21'0 0.0
2016-Apr-29 04:23N 34°32' E 135°21'0 0.0
2016-Apr-29 01:29N 34°32' E 135°21'0 0.0
2016-Apr-29 00:27N 34°32' E 135°21'7 7.8
2016-Apr-28 23:33N 34°33' E 135°13'1212.1
2016-Apr-28 22:33N 34°37' E 134°59'  

Dump ship's entire track history